Campanya Meteocatpedra
Centenari de l'SMC: 100 anys mirant el cel

Dades de l'estació automàtica Canyelles

?
?

Resum diari

22:30 TU
Dades diàries de l'estació meteorològica
Temperatura mitjana 18.9 °C
Temperatura màxima 26.0 °C 11:57 TU
Temperatura mínima 13.1 °C 5:01 TU
Humitat relativa mitjana 73%
Precipitació acumulada 0.0 mm
Ratxa màxima del vent (10 m) 25.2 km/h - 50º 10:03 TU
Irradiació solar global 19.0 MJ/m2

El tram horari està expressat en Temps Universal (TU). Cal sumar una hora en horari d'hivern i dues en horari d'estiu per passar a l'hora oficial.

Canyelles

Metadades estació meteorològica
Municipi Canyelles
Comarca Garraf
Altitud 148 m
Data alta 16.07.2013
Estat actual Operativa
Dades de període
Període
TU
TM
°C
TX
°C
TN
°C
HRM
%
PPT
mm
VVM (10 m)
km/h
DVM (10 m)
graus
VVX (10 m)
km/h
RS
W/m2
00:00 - 00:30 14.2 14.3 14.0 96 0.0 2.2 202 5.4 0
00:30 - 01:00 14.3 14.4 14.1 94 0.0 0.4 161 3.6 0
01:00 - 01:30 13.9 14.1 13.8 96 0.0 1.8 187 4.7 0
01:30 - 02:00 13.7 14.0 13.6 96 0.0 0.7 189 3.2 0
02:00 - 02:30 13.6 13.8 13.6 96 0.0 0.7 251 4.3 0
02:30 - 03:00 13.8 14.1 13.6 95 0.0 1.8 171 7.6 0
03:00 - 03:30 13.9 14.5 13.8 94 0.0 2.5 287 8.3 0
03:30 - 04:00 14.6 14.7 14.6 89 0.0 1.4 300 5.8 0
04:00 - 04:30 14.0 14.6 13.8 91 0.0 1.1 159 2.9 0
04:30 - 05:00 13.4 13.8 13.2 94 0.0 1.4 56 6.1 0
05:00 - 05:30 13.6 14.0 13.1 91 0.0 1.8 37 7.6 0
05:30 - 06:00 14.5 15.0 14.0 84 0.0 2.5 2 7.6 9
06:00 - 06:30 15.5 16.1 15.0 79 0.0 4.0 347 10.8 86
06:30 - 07:00 16.3 16.4 16.2 75 0.0 6.8 10 14.8 111
07:00 - 07:30 17.3 18.3 16.4 69 0.0 8.6 3 19.8 239
07:30 - 08:00 18.4 18.9 18.0 65 0.0 10.1 3 21.2 294
08:00 - 08:30 19.1 19.5 18.5 62 0.0 10.4 8 23.0 445
08:30 - 09:00 20.1 21.3 19.5 59 0.0 11.2 21 24.1 549
09:00 - 09:30 21.6 21.9 21.3 55 0.0 12.6 39 24.1 626
09:30 - 10:00 22.5 22.8 22.1 53 0.0 11.5 39 24.5 685
10:00 - 10:30 23.1 23.5 22.6 52 0.0 12.2 34 25.2 749
10:30 - 11:00 23.5 24.0 23.1 50 0.0 12.2 37 22.3 767
11:00 - 11:30 24.2 24.8 23.8 49 0.0 11.9 48 22.7 796
11:30 - 12:00 25.2 26.0 24.7 46 0.0 7.6 18 19.4 766
12:00 - 12:30 24.5 25.4 23.7 49 0.0 7.9 213 15.8 530
12:30 - 13:00 24.6 25.1 23.9 49 0.0 6.8 206 16.2 645
13:00 - 13:30 24.2 24.9 23.4 51 0.0 8.3 163 17.3 398
13:30 - 14:00 24.0 24.5 23.5 52 0.0 9.4 168 22.3 542
14:00 - 14:30 24.4 24.8 23.9 54 0.0 9.7 155 20.2 612
14:30 - 15:00 24.1 24.8 23.8 54 0.0 8.3 173 21.2 498
15:00 - 15:30 23.9 24.1 23.6 55 0.0 7.6 173 18.7 440
15:30 - 16:00 23.4 23.8 22.9 56 0.0 8.3 145 17.6 349
16:00 - 16:30 23.0 23.2 22.8 59 0.0 6.8 145 15.5 252
16:30 - 17:00 22.6 22.9 22.2 63 0.0 6.5 148 14.4 153
17:00 - 17:30 21.7 22.2 21.3 70 0.0 6.1 156 13.7 45
17:30 - 18:00 21.0 21.3 20.8 74 0.0 4.3 157 9.4 6
18:00 - 18:30 20.3 20.8 19.6 77 0.0 2.5 201 14.0 0
18:30 - 19:00 19.2 19.5 18.9 77 0.0 3.2 68 15.1 0
19:00 - 19:30 18.5 18.8 18.1 78 0.0 3.6 1 9.7 0
19:30 - 20:00 18.3 18.5 18.2 79 0.0 6.8 356 19.4 0
20:00 - 20:30 17.6 18.4 17.0 83 0.0 7.2 346 14.8 0
20:30 - 21:00 16.7 17.0 16.5 86 0.0 5.0 8 12.2 0
21:00 - 21:30 16.6 16.8 16.5 86 0.0 4.0 9 8.3 0
21:30 - 22:00 16.5 16.7 16.2 84 0.0 5.4 355 9.7 0
22:00 - 22:30 16.0 16.2 15.7 85 0.0 4.7 348 10.1 0
22:30 - 23:00 15.7 15.9 15.6 85 0.0 4.3 358 9.7 0

Les dades en taronja només han passat un control de qualitat automàtic. Resta pendent la seva validació definitiva.